createdAt,value
2022-09-10T00:00:02.590Z,8.4
2022-09-10T00:01:02.599Z,8.3
2022-09-10T00:02:02.634Z,8.3
2022-09-10T00:03:02.616Z,8.3
2022-09-10T00:04:02.577Z,8.4
2022-09-10T00:05:02.566Z,8.4
2022-09-10T00:06:02.604Z,8.3
2022-09-10T00:07:02.590Z,8.4
2022-09-10T00:08:02.569Z,8.3
2022-09-10T00:09:02.612Z,8.3
2022-09-10T00:10:02.585Z,8.2
2022-09-10T00:11:02.584Z,8.3
2022-09-10T00:12:02.588Z,8.5
2022-09-10T00:13:02.579Z,8.4
2022-09-10T00:14:02.586Z,8.5
2022-09-10T00:15:02.590Z,8.5
2022-09-10T00:16:02.635Z,8.3
2022-09-10T00:17:02.588Z,8.2
2022-09-10T00:18:02.578Z,8.1
2022-09-10T00:19:02.596Z,8.3
2022-09-10T00:20:02.576Z,8.4
2022-09-10T00:21:02.612Z,8.4
2022-09-10T00:22:02.597Z,8.4
2022-09-10T00:23:02.590Z,8.5
2022-09-10T00:24:02.744Z,8.3
2022-09-10T00:25:07.632Z,8.3
2022-09-10T00:26:02.595Z,8.4
2022-09-10T00:27:02.606Z,8.4
2022-09-10T00:28:02.573Z,8.5
2022-09-10T00:29:02.582Z,8.4
2022-09-10T00:30:02.587Z,8.4
2022-09-10T00:31:02.602Z,8.4
2022-09-10T00:32:02.586Z,8.4
2022-09-10T00:33:02.580Z,8.3
2022-09-10T00:34:02.581Z,8.4
2022-09-10T00:35:02.577Z,8.3
2022-09-10T00:36:02.601Z,8.4
2022-09-10T00:37:02.587Z,8.4
2022-09-10T00:38:02.577Z,8.3
2022-09-10T00:39:02.584Z,8.4
2022-09-10T00:39:56.742Z,8.3
2022-09-10T00:41:02.610Z,8.3
2022-09-10T00:42:02.590Z,8.1
2022-09-10T00:43:02.602Z,8
2022-09-10T00:44:02.580Z,8.2
2022-09-10T00:45:02.622Z,8
2022-09-10T00:46:02.636Z,8.2
2022-09-10T00:47:02.588Z,8.3
2022-09-10T00:48:02.579Z,8.3
2022-09-10T00:49:02.582Z,8.5
2022-09-10T00:50:02.591Z,8.4
2022-09-10T00:51:02.581Z,8.4
2022-09-10T00:52:02.589Z,8.4
2022-09-10T00:53:02.599Z,8.5
2022-09-10T00:54:02.595Z,8.5
2022-09-10T00:55:02.615Z,8.4
2022-09-10T00:56:02.586Z,8.4
2022-09-10T00:57:02.615Z,8.3
2022-09-10T00:58:02.589Z,8.4
2022-09-10T00:59:02.586Z,8.4
2022-09-10T01:00:02.594Z,8.3
2022-09-10T01:01:02.714Z,8.4
2022-09-10T01:02:02.712Z,8.4
2022-09-10T01:03:02.584Z,8.4
2022-09-10T01:04:02.583Z,8.3
2022-09-10T01:05:02.588Z,8.4
2022-09-10T01:06:02.598Z,8
2022-09-10T01:07:02.598Z,8.3
2022-09-10T01:08:02.611Z,8.2
2022-09-10T01:09:02.581Z,8.2
2022-09-10T01:10:02.587Z,7.7
2022-09-10T01:11:02.601Z,8
2022-09-10T01:12:04.421Z,7.9
2022-09-10T01:13:02.585Z,8.1
2022-09-10T01:14:02.590Z,8.3
2022-09-10T01:15:02.603Z,8.4
2022-09-10T01:16:02.681Z,8.4
2022-09-10T01:17:02.594Z,8.4
2022-09-10T01:18:02.586Z,8.5
2022-09-10T01:19:07.270Z,8.6
2022-09-10T01:20:02.590Z,8.5
2022-09-10T01:21:02.578Z,8.4
2022-09-10T01:29:02.592Z,8.4
2022-09-10T01:30:02.591Z,8.2
2022-09-10T01:31:02.597Z,8.1
2022-09-10T01:32:02.599Z,8.2
2022-09-10T01:33:02.601Z,8.4
2022-09-10T01:34:02.642Z,8.4
2022-09-10T01:35:02.600Z,8.4
2022-09-10T01:36:02.607Z,8.3
2022-09-10T01:37:02.605Z,8.3
2022-09-10T01:38:02.595Z,8
2022-09-10T01:39:02.591Z,8.3
2022-09-10T01:40:02.657Z,8.3
2022-09-10T01:41:02.614Z,8
2022-09-10T01:42:02.605Z,8.2
2022-09-10T01:43:02.594Z,8.3
2022-09-10T01:44:02.587Z,8.4
2022-09-10T01:45:02.607Z,8.3
2022-09-10T01:46:02.632Z,8.4
2022-09-10T01:47:02.622Z,8.3
2022-09-10T01:48:02.593Z,8.4
2022-09-10T01:50:02.605Z,8.4
2022-09-10T01:50:32.318Z,8.3
2022-09-10T01:51:02.609Z,8.5
2022-09-10T01:52:02.604Z,8.3
2022-09-10T01:53:02.606Z,8.3
2022-09-10T01:54:02.601Z,8.4
2022-09-10T01:55:02.601Z,8.4
2022-09-10T01:56:02.607Z,8.4
2022-09-10T01:57:02.598Z,8.2
2022-09-10T01:58:02.605Z,8.2
2022-09-10T01:59:02.615Z,8.4
2022-09-10T02:00:02.610Z,8.4
2022-09-10T02:01:02.677Z,8.4
2022-09-10T02:02:02.668Z,8.1
2022-09-10T02:03:02.618Z,8.4
2022-09-10T02:04:02.601Z,8.4
2022-09-10T02:05:02.618Z,8.4
2022-09-10T02:06:02.610Z,8.3
2022-09-10T02:07:02.606Z,8.4
2022-09-10T02:08:02.659Z,8.4
2022-09-10T02:09:02.606Z,8.4
2022-09-10T02:10:02.605Z,8.2
2022-09-10T02:11:02.598Z,8.3
2022-09-10T02:12:02.605Z,8.4
2022-09-10T02:13:02.618Z,8.4
2022-09-10T02:14:02.606Z,8.4
2022-09-10T02:15:02.601Z,8.4
2022-09-10T02:16:02.642Z,8.4
2022-09-10T02:17:02.618Z,8.4
2022-09-10T02:18:02.637Z,8.3
2022-09-10T02:19:02.608Z,8.5
2022-09-10T02:20:02.630Z,8.4
2022-09-10T02:21:02.601Z,8.4
2022-09-10T02:22:02.607Z,8.5
2022-09-10T02:23:02.614Z,8.4
2022-09-10T02:24:02.610Z,8.3
2022-09-10T02:25:02.631Z,8.4
2022-09-10T02:26:02.606Z,8.4
2022-09-10T02:27:02.603Z,8.3
2022-09-10T02:29:02.618Z,8.5
2022-09-10T02:30:02.614Z,8.5
2022-09-10T02:31:02.596Z,8.4
2022-09-10T02:32:02.613Z,8.3
2022-09-10T02:33:02.617Z,8.3
2022-09-10T02:34:02.633Z,8.5
2022-09-10T02:35:02.601Z,8.5
2022-09-10T02:36:02.611Z,8.4
2022-09-10T02:37:02.605Z,8.3
2022-09-10T02:38:02.624Z,8.4
2022-09-10T02:39:02.624Z,8.4
2022-09-10T02:40:02.689Z,8.5
2022-09-10T02:41:02.599Z,8.4
2022-09-10T02:42:02.601Z,8.3
2022-09-10T02:43:02.625Z,8.3
2022-09-10T02:44:02.610Z,8.3
2022-09-10T02:45:02.616Z,8.4
2022-09-10T02:46:02.628Z,8.3
2022-09-10T02:47:02.613Z,8.4
2022-09-10T02:48:02.609Z,8.4
2022-09-10T02:49:02.645Z,8.4
2022-09-10T02:50:02.618Z,8.4
2022-09-10T02:51:02.613Z,8.4
2022-09-10T02:52:02.630Z,8.3
2022-09-10T02:53:02.619Z,8.4
2022-09-10T02:54:02.635Z,8.3
2022-09-10T02:55:02.624Z,8.5
2022-09-10T02:56:02.622Z,8.5
2022-09-10T02:57:02.632Z,8.4
2022-09-10T02:58:02.621Z,8.4
2022-09-10T02:59:02.643Z,8.4
2022-09-10T03:00:02.619Z,8.4
2022-09-10T03:01:02.650Z,8.4
2022-09-10T03:02:02.681Z,8.5
2022-09-10T03:03:03.271Z,8.5
2022-09-10T03:04:02.608Z,8.4
2022-09-10T03:05:02.683Z,8.5
2022-09-10T03:06:02.618Z,8.4
2022-09-10T03:07:02.624Z,8.4
2022-09-10T03:08:02.621Z,8.4
2022-09-10T03:09:02.612Z,8.2
2022-09-10T03:10:02.621Z,8.4
2022-09-10T03:11:02.632Z,8.4
2022-09-10T03:12:02.628Z,8.5
2022-09-10T03:13:02.621Z,8.3
2022-09-10T03:14:02.623Z,8.5
2022-09-10T03:15:02.613Z,8.5
2022-09-10T03:16:02.674Z,8.4
2022-09-10T03:17:02.621Z,8.5
2022-09-10T03:18:02.655Z,8.1
2022-09-10T03:19:02.611Z,8.4
2022-09-10T03:20:02.632Z,8.4
2022-09-10T03:21:02.630Z,8.5
2022-09-10T03:22:02.627Z,8.4
2022-09-10T03:23:02.640Z,8.2
2022-09-10T03:24:05.176Z,8.4
2022-09-10T03:25:02.620Z,8.3
2022-09-10T03:26:02.612Z,8.4
2022-09-10T03:27:02.645Z,8.5
2022-09-10T03:28:02.625Z,8.5
2022-09-10T03:29:02.605Z,8.5
2022-09-10T03:30:02.629Z,8.4
2022-09-10T03:31:02.630Z,8.1
2022-09-10T03:32:02.638Z,8.2
2022-09-10T03:33:02.649Z,8.5
2022-09-10T03:34:02.683Z,8.4
2022-09-10T03:36:02.624Z,8.6
2022-09-10T03:37:02.628Z,8.4
2022-09-10T03:38:02.636Z,8.6
2022-09-10T03:39:02.630Z,8.3
2022-09-10T03:40:02.690Z,8.4
2022-09-10T03:41:02.618Z,8.5
2022-09-10T03:43:02.636Z,8.4
2022-09-10T03:44:02.621Z,8.2
2022-09-10T03:45:02.619Z,8.3
2022-09-10T03:46:02.739Z,8.2
2022-09-10T03:47:02.634Z,8.3
2022-09-10T03:48:02.629Z,8.4
2022-09-10T03:49:02.674Z,8.4
2022-09-10T03:51:02.648Z,8.6
2022-09-10T03:52:02.644Z,8.5
2022-09-10T03:53:02.629Z,8.6
2022-09-10T03:54:02.633Z,8.4
2022-09-10T03:55:02.633Z,8.4
2022-09-10T03:56:02.621Z,8.5
2022-09-10T03:57:02.650Z,8.5
2022-09-10T03:58:02.626Z,8.7
2022-09-10T03:59:02.628Z,8.7
2022-09-10T04:00:02.622Z,8.6
2022-09-10T04:01:02.693Z,8.5
2022-09-10T04:02:02.679Z,8.5
2022-09-10T04:03:02.637Z,8.4
2022-09-10T04:04:02.640Z,8.4
2022-09-10T04:05:02.641Z,8.4
2022-09-10T04:06:02.640Z,8.5
2022-09-10T04:07:02.631Z,8.4
2022-09-10T04:08:02.647Z,8.3
2022-09-10T04:09:02.646Z,8.4
2022-09-10T04:10:02.635Z,8.4
2022-09-10T04:11:02.636Z,8.5
2022-09-10T04:12:02.616Z,8.6
2022-09-10T04:13:02.651Z,8.6
2022-09-10T04:14:02.634Z,8.5
2022-09-10T04:15:02.638Z,8.5
2022-09-10T04:16:02.661Z,8.5
2022-09-10T04:17:02.637Z,8.5
2022-09-10T04:18:02.632Z,8.6
2022-09-10T04:19:02.640Z,8.6
2022-09-10T04:20:02.652Z,8.7
2022-09-10T04:21:02.650Z,8.6
2022-09-10T04:22:02.659Z,8.5
2022-09-10T04:23:02.645Z,8.3
2022-09-10T04:24:02.643Z,8.4
2022-09-10T04:25:02.628Z,8.5
2022-09-10T04:26:02.632Z,8.6
2022-09-10T04:27:02.640Z,8.6
2022-09-10T04:28:02.656Z,8.6
2022-09-10T04:29:02.642Z,8.6
2022-09-10T04:30:02.634Z,8.6
2022-09-10T04:31:02.645Z,8.6
2022-09-10T04:32:02.627Z,8.5
2022-09-10T04:33:02.689Z,8.5
2022-09-10T04:34:02.631Z,8.5
2022-09-10T04:35:02.653Z,8.3
2022-09-10T04:36:02.642Z,8.5
2022-09-10T04:37:02.642Z,8.5
2022-09-10T04:38:02.651Z,8.5
2022-09-10T04:39:02.672Z,8.5
2022-09-10T04:40:02.788Z,8.6
2022-09-10T04:41:02.654Z,8.5
2022-09-10T04:42:02.637Z,8.5
2022-09-10T04:43:02.640Z,8.5
2022-09-10T04:44:02.628Z,8.4
2022-09-10T04:45:02.679Z,8.5
2022-09-10T04:46:02.689Z,8.5
2022-09-10T04:47:02.641Z,8.5
2022-09-10T04:48:06.883Z,8.4
2022-09-10T04:49:02.656Z,8.5
2022-09-10T04:50:02.663Z,8.6
2022-09-10T04:51:17.970Z,8.6
2022-09-10T04:52:02.657Z,8.6
2022-09-10T04:53:02.685Z,8.5
2022-09-10T04:54:02.655Z,8.5
2022-09-10T04:55:02.651Z,8.5
2022-09-10T04:56:02.656Z,8.4
2022-09-10T04:57:02.641Z,8.2
2022-09-10T04:58:02.660Z,8.3
2022-09-10T04:59:02.652Z,8.5
2022-09-10T05:00:02.697Z,8.5
2022-09-10T05:01:02.689Z,8.4
2022-09-10T05:02:02.729Z,8.4
2022-09-10T05:03:02.655Z,8.4
2022-09-10T05:04:02.643Z,8.3
2022-09-10T05:05:02.639Z,8.3
2022-09-10T05:06:02.654Z,8.4
2022-09-10T05:07:02.652Z,8.5
2022-09-10T05:08:02.651Z,8.5
2022-09-10T05:09:02.653Z,8.5
2022-09-10T05:10:02.654Z,8.5
2022-09-10T05:11:02.667Z,8.4
2022-09-10T05:12:02.666Z,8.3
2022-09-10T05:13:02.648Z,8.4
2022-09-10T05:14:02.640Z,8.3
2022-09-10T05:15:02.642Z,8.5
2022-09-10T05:16:02.654Z,8.5
2022-09-10T05:17:02.667Z,8.5
2022-09-10T05:18:02.657Z,8.5
2022-09-10T05:19:02.676Z,8.5
2022-09-10T05:20:02.640Z,8.5
2022-09-10T05:22:02.648Z,8.6
2022-09-10T05:23:02.650Z,8.5
2022-09-10T05:24:02.685Z,8.5
2022-09-10T05:25:02.656Z,8.5
2022-09-10T05:26:02.662Z,8.6
2022-09-10T05:27:02.665Z,8.6
2022-09-10T05:28:02.648Z,8.6
2022-09-10T05:29:02.657Z,8.7
2022-09-10T05:30:02.648Z,8.8
2022-09-10T05:31:02.661Z,8.7
2022-09-10T05:32:02.673Z,8.8
2022-09-10T05:33:02.668Z,8.7
2022-09-10T05:34:02.666Z,8.7
2022-09-10T05:35:02.654Z,8.6
2022-09-10T05:37:02.664Z,8.6
2022-09-10T05:37:31.588Z,8.6
2022-09-10T05:38:02.660Z,8.4
2022-09-10T05:39:02.660Z,8.3
2022-09-10T05:40:02.727Z,8.4
2022-09-10T05:41:02.670Z,8.4
2022-09-10T05:42:02.808Z,8.5
2022-09-10T05:43:02.666Z,8.5
2022-09-10T05:44:02.662Z,8.5
2022-09-10T05:45:02.670Z,8.6
2022-09-10T05:46:02.760Z,8.7
2022-09-10T05:47:02.692Z,8.7
2022-09-10T05:48:02.710Z,8.8
2022-09-10T05:49:02.670Z,8.8
2022-09-10T05:50:02.709Z,8.6
2022-09-10T05:51:02.686Z,8.6
2022-09-10T05:52:02.678Z,8.6
2022-09-10T05:53:02.679Z,8.7
2022-09-10T05:54:02.668Z,8.7
2022-09-10T05:55:02.712Z,8.7
2022-09-10T05:56:02.690Z,8.6
2022-09-10T05:57:02.667Z,8.6
2022-09-10T05:58:02.666Z,8.7
2022-09-10T05:59:02.680Z,8.7
2022-09-10T06:00:02.678Z,8.8
2022-09-10T06:01:02.675Z,8.6
2022-09-10T06:02:02.753Z,8.4
2022-09-10T06:03:02.852Z,8.6
2022-09-10T06:04:02.682Z,8.5
2022-09-10T06:05:02.741Z,8.7
2022-09-10T06:06:02.672Z,8.7
2022-09-10T06:07:02.678Z,8.2
2022-09-10T06:08:06.680Z,8.5
2022-09-10T06:09:02.668Z,8.7
2022-09-10T06:10:02.678Z,8.6
2022-09-10T06:11:02.676Z,8.7
2022-09-10T06:12:02.669Z,8.8
2022-09-10T06:13:02.659Z,8.7
2022-09-10T06:14:02.662Z,8.6
2022-09-10T06:15:02.690Z,8.4
2022-09-10T06:16:02.774Z,8.6
2022-09-10T06:17:02.674Z,8.4
2022-09-10T06:18:02.677Z,8.6
2022-09-10T06:19:02.678Z,8.7
2022-09-10T06:20:02.697Z,8.8
2022-09-10T06:21:02.669Z,8.6
2022-09-10T06:22:02.991Z,8.8
2022-09-10T06:23:02.673Z,8.8
2022-09-10T06:24:02.678Z,8.8
2022-09-10T06:25:02.668Z,8.7
2022-09-10T06:26:02.716Z,8.8
2022-09-10T06:27:02.680Z,8.8
2022-09-10T06:28:02.682Z,8.9
2022-09-10T06:29:02.680Z,8.9
2022-09-10T06:30:02.678Z,8.9
2022-09-10T06:31:02.949Z,8.9
2022-09-10T06:32:02.665Z,8.9
2022-09-10T06:33:02.691Z,8.9
2022-09-10T06:34:02.695Z,8.7
2022-09-10T06:35:02.679Z,8.8
2022-09-10T06:36:02.670Z,8.5
2022-09-10T06:37:02.682Z,8.8
2022-09-10T06:38:02.689Z,8.8
2022-09-10T06:39:02.674Z,8.8
2022-09-10T06:40:02.754Z,8.6
2022-09-10T06:41:02.683Z,8.7
2022-09-10T06:42:02.687Z,8.9
2022-09-10T06:43:02.689Z,8.8
2022-09-10T06:44:02.676Z,8.6
2022-09-10T06:45:02.688Z,8.6
2022-09-10T06:46:02.792Z,8.6
2022-09-10T06:47:39.393Z,8.4
2022-09-10T06:49:02.676Z,8.8
2022-09-10T06:50:02.697Z,8.8
2022-09-10T06:51:02.722Z,8.9
2022-09-10T06:52:02.686Z,8.9
2022-09-10T06:53:02.674Z,8.8
2022-09-10T06:54:02.686Z,8.8
2022-09-10T06:55:02.707Z,8.7
2022-09-10T06:56:02.744Z,8.9
2022-09-10T06:57:02.739Z,8.8
2022-09-10T06:58:02.685Z,8.9
2022-09-10T06:59:02.886Z,8.9
2022-09-10T07:00:02.682Z,8.8
2022-09-10T07:01:03.236Z,8.8
2022-09-10T07:02:02.786Z,8.8
2022-09-10T07:03:02.675Z,8.9
2022-09-10T07:04:02.683Z,8.9
2022-09-10T07:05:02.723Z,9
2022-09-10T07:06:02.693Z,8.9
2022-09-10T07:07:02.714Z,9
2022-09-10T07:08:02.679Z,9
2022-09-10T07:09:02.693Z,8.9
2022-09-10T07:10:02.684Z,8.9
2022-09-10T07:11:02.726Z,8.8
2022-09-10T07:12:02.695Z,8.9
2022-09-10T07:13:02.685Z,8.9
2022-09-10T07:14:02.671Z,8.7
2022-09-10T07:15:02.686Z,8.6
2022-09-10T07:16:02.701Z,8.8
2022-09-10T07:17:02.700Z,8.9
2022-09-10T07:18:02.669Z,8.6
2022-09-10T07:19:02.681Z,8.8
2022-09-10T07:20:02.720Z,8.7
2022-09-10T07:21:02.713Z,8.6
2022-09-10T07:23:02.683Z,8.6
2022-09-10T07:24:02.684Z,8.2
2022-09-10T07:25:02.693Z,8.5
2022-09-10T07:26:02.678Z,8.7
2022-09-10T07:27:02.676Z,8.8
2022-09-10T07:28:02.706Z,8.7
2022-09-10T07:29:02.687Z,8.7
2022-09-10T07:30:02.682Z,8.8
2022-09-10T07:31:02.754Z,8.9
2022-09-10T07:32:02.680Z,8.9
2022-09-10T07:33:02.683Z,9
2022-09-10T07:34:02.686Z,8.9
2022-09-10T07:35:02.685Z,9
2022-09-10T07:36:02.681Z,9
2022-09-10T07:37:02.740Z,9
2022-09-10T07:38:02.682Z,9
2022-09-10T07:39:02.669Z,9.1
2022-09-10T07:40:02.717Z,9
2022-09-10T07:41:02.690Z,9.1
2022-09-10T07:42:02.688Z,9.1
2022-09-10T07:43:02.689Z,8.8
2022-09-10T07:44:02.688Z,9
2022-09-10T07:45:02.698Z,9.1
2022-09-10T07:46:04.379Z,9.1
2022-09-10T07:47:02.680Z,9
2022-09-10T07:48:02.690Z,9.1
2022-09-10T07:49:02.711Z,9.2
2022-09-10T07:50:02.703Z,9.1
2022-09-10T07:51:02.689Z,9
2022-09-10T07:52:02.677Z,9.1
2022-09-10T07:53:02.702Z,9.1
2022-09-10T07:54:02.717Z,9
2022-09-10T07:55:02.687Z,9.1
2022-09-10T07:56:02.682Z,9.2
2022-09-10T07:57:02.685Z,9.2
2022-09-10T07:58:02.693Z,9.3
2022-09-10T07:59:02.725Z,9.3
2022-09-10T08:00:02.691Z,9.3
2022-09-10T08:01:09.302Z,9.4
2022-09-10T08:02:02.700Z,9.3
2022-09-10T08:03:02.694Z,9.4
2022-09-10T08:04:05.181Z,9.3
2022-09-10T08:05:02.683Z,9.4
2022-09-10T08:06:02.684Z,9.4
2022-09-10T08:07:02.686Z,9.2
2022-09-10T08:08:02.691Z,9.5
2022-09-10T08:09:02.686Z,9.5
2022-09-10T08:10:02.686Z,9.4
2022-09-10T08:11:02.697Z,9.4
2022-09-10T08:12:02.709Z,9.4
2022-09-10T08:13:02.695Z,9.4
2022-09-10T08:14:02.706Z,9.5
2022-09-10T08:15:02.690Z,9.5
2022-09-10T08:16:02.716Z,9.6
2022-09-10T08:17:02.692Z,9.6
2022-09-10T08:18:02.797Z,9.7
2022-09-10T08:19:02.697Z,9.7
2022-09-10T08:20:02.704Z,9.8
2022-09-10T08:21:02.692Z,9.8
2022-09-10T08:22:02.702Z,9.7
2022-09-10T08:23:02.691Z,9.7
2022-09-10T08:24:02.699Z,9.8
2022-09-10T08:25:02.711Z,9.5
2022-09-10T08:26:02.724Z,9.6
2022-09-10T08:27:02.695Z,9.7
2022-09-10T08:28:02.703Z,9.8
2022-09-10T08:29:02.688Z,9.8
2022-09-10T08:30:02.726Z,9.5
2022-09-10T08:31:02.793Z,9.9
2022-09-10T08:32:02.696Z,9.6
2022-09-10T08:33:02.756Z,9.6
2022-09-10T08:34:02.697Z,9.7
2022-09-10T08:35:02.749Z,9.4
2022-09-10T08:36:02.706Z,9.7
2022-09-10T08:37:02.709Z,9.8
2022-09-10T08:38:02.711Z,9.7
2022-09-10T08:39:07.615Z,9.2
2022-09-10T08:40:02.727Z,9.1
2022-09-10T08:41:02.696Z,9.3
2022-09-10T08:42:02.706Z,9.6
2022-09-10T08:44:02.697Z,9.7
2022-09-10T08:45:02.700Z,9.7
2022-09-10T08:46:02.765Z,9.8
2022-09-10T08:47:02.714Z,10
2022-09-10T08:48:02.704Z,10
2022-09-10T08:49:02.705Z,9.9
2022-09-10T08:50:02.768Z,9.7
2022-09-10T08:51:02.701Z,9.9
2022-09-10T08:52:02.713Z,9.8
2022-09-10T08:53:02.701Z,9.8
2022-09-10T08:54:02.699Z,9.8
2022-09-10T08:55:02.706Z,9.5
2022-09-10T08:56:02.707Z,9.5
2022-09-10T08:57:02.701Z,9.5
2022-09-10T08:58:02.714Z,9.3
2022-09-10T08:59:02.754Z,9.4
2022-09-10T09:00:02.713Z,9.4
2022-09-10T09:00:56.697Z,9.4
2022-09-10T09:02:02.838Z,9.4
2022-09-10T09:03:02.766Z,9.2
2022-09-10T09:04:06.156Z,9.5
2022-09-10T09:05:02.717Z,9.5
2022-09-10T09:06:02.707Z,9.6
2022-09-10T09:07:02.722Z,9.7
2022-09-10T09:08:02.707Z,9.5
2022-09-10T09:09:02.707Z,9.6
2022-09-10T09:10:02.712Z,9.4
2022-09-10T09:11:02.715Z,9.6
2022-09-10T09:12:02.700Z,9.8
2022-09-10T09:13:02.711Z,9.7
2022-09-10T09:14:02.716Z,9.6
2022-09-10T09:15:05.803Z,9.6
2022-09-10T09:16:02.817Z,9.3
2022-09-10T09:17:02.699Z,9.4
2022-09-10T09:18:02.767Z,9.5
2022-09-10T09:19:02.716Z,9.4
2022-09-10T09:20:02.730Z,9.2
2022-09-10T09:21:02.725Z,9.4
2022-09-10T09:22:02.711Z,9.3
2022-09-10T09:23:02.722Z,9.4
2022-09-10T09:24:13.228Z,9.3
2022-09-10T09:25:02.771Z,9.3
2022-09-10T09:26:02.711Z,8.8
2022-09-10T09:27:02.712Z,8.7
2022-09-10T09:28:02.719Z,9.1
2022-09-10T09:29:02.724Z,8.8
2022-09-10T09:30:02.796Z,9.2
2022-09-10T09:31:06.335Z,8.9
2022-09-10T09:32:02.719Z,9.1
2022-09-10T09:33:02.722Z,9.2
2022-09-10T09:34:02.726Z,9.4
2022-09-10T09:35:02.715Z,9.3
2022-09-10T09:36:02.717Z,9.5
2022-09-10T09:37:02.728Z,9.1
2022-09-10T09:38:02.723Z,9.5
2022-09-10T09:39:02.721Z,9.1
2022-09-10T09:40:02.777Z,9.4
2022-09-10T09:41:02.720Z,9.5
2022-09-10T09:42:02.720Z,9.4
2022-09-10T09:43:02.717Z,9.6
2022-09-10T09:44:02.729Z,9.6
2022-09-10T09:45:02.713Z,9.6
2022-09-10T09:46:02.830Z,9.3
2022-09-10T09:47:02.737Z,9.5
2022-09-10T09:48:02.721Z,9.5
2022-09-10T09:49:02.738Z,9.5
2022-09-10T09:50:02.738Z,9.1
2022-09-10T09:51:02.726Z,9.6
2022-09-10T09:52:02.709Z,9.7
2022-09-10T09:53:02.729Z,9.4
2022-09-10T09:54:34.687Z,8.5
2022-09-10T09:55:14.318Z,9.3
2022-09-10T09:56:02.703Z,9
2022-09-10T09:57:02.729Z,9.2
2022-09-10T09:58:02.728Z,9.5
2022-09-10T09:59:02.727Z,8.9
2022-09-10T10:00:02.705Z,9.4
2022-09-10T10:01:02.818Z,9.3
2022-09-10T10:02:02.766Z,9.1
2022-09-10T10:03:02.733Z,9.3
2022-09-10T10:04:02.731Z,9.4
2022-09-10T10:05:02.735Z,9.4
2022-09-10T10:06:02.719Z,8.9
2022-09-10T10:07:02.735Z,9.1
2022-09-10T10:08:02.722Z,9.2
2022-09-10T10:09:02.784Z,9.6
2022-09-10T10:10:02.717Z,9.5
2022-09-10T10:11:02.718Z,9.6
2022-09-10T10:12:02.753Z,9.1
2022-09-10T10:13:02.728Z,8.6
2022-09-10T10:14:02.726Z,9.5
2022-09-10T10:15:02.730Z,9.6
2022-09-10T10:16:02.804Z,9.5
2022-09-10T10:17:02.719Z,9.4
2022-09-10T10:18:02.751Z,9
2022-09-10T10:19:02.720Z,9.3
2022-09-10T10:20:02.736Z,9.2
2022-09-10T10:21:02.736Z,9
2022-09-10T10:22:02.722Z,9.2
2022-09-10T10:23:02.745Z,9.3
2022-09-10T10:24:02.719Z,9.3
2022-09-10T10:25:02.732Z,9.1
2022-09-10T10:26:02.719Z,9.1
2022-09-10T10:27:02.738Z,9.2
2022-09-10T10:28:02.730Z,8.7
2022-09-10T10:29:02.733Z,8.8
2022-09-10T10:30:02.732Z,9.1
2022-09-10T10:31:02.791Z,9.4
2022-09-10T10:32:05.684Z,8.5
2022-09-10T10:33:02.724Z,9.3
2022-09-10T10:34:02.727Z,9
2022-09-10T10:35:02.728Z,9.3
2022-09-10T10:36:02.729Z,9.3
2022-09-10T10:37:02.730Z,9.4
2022-09-10T10:38:02.760Z,9.2
2022-09-10T10:39:02.761Z,9.1
2022-09-10T10:40:02.802Z,9
2022-09-10T10:41:02.725Z,9.4
2022-09-10T10:42:02.733Z,9
2022-09-10T10:43:02.743Z,9.1
2022-09-10T10:44:02.730Z,9.2
2022-09-10T10:45:02.734Z,9.2
2022-09-10T10:46:02.816Z,9
2022-09-10T10:47:02.724Z,9.2
2022-09-10T10:48:02.733Z,9.1
2022-09-10T10:49:04.039Z,9.1
2022-09-10T10:50:02.745Z,9.4
2022-09-10T10:51:02.741Z,9
2022-09-10T10:52:02.731Z,9.2
2022-09-10T10:53:02.731Z,9.5
2022-09-10T10:54:02.754Z,9.2
2022-09-10T10:55:02.740Z,9.4
2022-09-10T10:56:02.742Z,9.3
2022-09-10T10:57:02.724Z,9.5
2022-09-10T10:58:02.732Z,9.1
2022-09-10T10:59:02.748Z,9.4
2022-09-10T11:00:02.738Z,9.3
2022-09-10T11:01:02.751Z,9.2
2022-09-10T11:02:02.945Z,9.2
2022-09-10T11:03:02.748Z,9.5
2022-09-10T11:04:02.750Z,9.4
2022-09-10T11:05:02.762Z,8.8
2022-09-10T11:06:02.741Z,9.4
2022-09-10T11:07:02.758Z,9.5
2022-09-10T11:08:02.750Z,9.5
2022-09-10T11:09:02.749Z,9.3
2022-09-10T11:10:02.750Z,9.4
2022-09-10T11:11:02.733Z,9.5
2022-09-10T11:12:02.736Z,9.1
2022-09-10T11:13:02.735Z,9.5
2022-09-10T11:14:02.764Z,9.5
2022-09-10T11:15:02.732Z,9.2
2022-09-10T11:16:02.885Z,9.3
2022-09-10T11:17:02.740Z,9.5
2022-09-10T11:18:02.751Z,9.5
2022-09-10T11:19:02.752Z,9.5
2022-09-10T11:20:27.032Z,9.1
2022-09-10T11:21:02.740Z,9.5
2022-09-10T11:22:02.741Z,9.3
2022-09-10T11:23:02.749Z,9.4
2022-09-10T11:24:02.753Z,9.5
2022-09-10T11:25:02.761Z,9.5
2022-09-10T11:26:02.741Z,9.1
2022-09-10T11:27:02.734Z,9.2
2022-09-10T11:28:02.753Z,9.1
2022-09-10T11:29:02.752Z,9.4
2022-09-10T11:30:02.761Z,9.5
2022-09-10T11:31:02.780Z,9.1
2022-09-10T11:32:02.739Z,9
2022-09-10T11:33:02.779Z,9.2
2022-09-10T11:34:02.756Z,9.3
2022-09-10T11:35:02.754Z,9.5
2022-09-10T11:36:02.768Z,9.4
2022-09-10T11:37:02.740Z,9.3
2022-09-10T11:38:02.767Z,9.4
2022-09-10T11:39:02.747Z,9.1
2022-09-10T11:40:02.858Z,9.3
2022-09-10T11:41:02.753Z,9
2022-09-10T11:42:02.744Z,9.1
2022-09-10T11:43:02.759Z,9.4
2022-09-10T11:44:02.753Z,9.3
2022-09-10T11:45:02.827Z,9.2
2022-09-10T11:46:02.803Z,9.4
2022-09-10T11:47:02.754Z,9.5
2022-09-10T11:48:02.754Z,9.5
2022-09-10T11:49:02.790Z,9.6
2022-09-10T11:50:02.751Z,9.6
2022-09-10T11:51:02.759Z,9.4
2022-09-10T11:52:02.747Z,9.3
2022-09-10T11:53:02.758Z,9.5
2022-09-10T11:54:02.776Z,9.2
2022-09-10T11:55:02.752Z,9.5
2022-09-10T11:56:02.753Z,9.1
2022-09-10T11:57:02.760Z,9.1
2022-09-10T11:58:02.761Z,9
2022-09-10T11:59:02.762Z,8.7
2022-09-10T12:00:02.841Z,8.8
2022-09-10T12:01:02.766Z,8.8
2022-09-10T12:02:02.919Z,8.7
2022-09-10T12:03:02.756Z,8.5
2022-09-10T12:04:02.804Z,8.5
2022-09-10T12:05:02.759Z,8.9
2022-09-10T12:06:02.760Z,8.8
2022-09-10T12:07:02.815Z,9.1
2022-09-10T12:08:02.746Z,9.2
2022-09-10T12:09:02.754Z,9.2
2022-09-10T12:10:02.805Z,9.1
2022-09-10T12:11:02.763Z,9
2022-09-10T12:12:02.762Z,9.2
2022-09-10T12:13:02.766Z,9.3
2022-09-10T12:14:02.745Z,9.4
2022-09-10T12:15:02.766Z,9.3
2022-09-10T12:16:02.805Z,9.3
2022-09-10T12:17:02.768Z,9.2
2022-09-10T12:18:02.749Z,9.2
2022-09-10T12:19:02.779Z,9
2022-09-10T12:20:02.815Z,9.3
2022-09-10T12:21:02.771Z,9.2
2022-09-10T12:22:02.760Z,9.4
2022-09-10T12:23:02.775Z,9.4
2022-09-10T12:24:02.745Z,9.4
2022-09-10T12:25:02.762Z,9
2022-09-10T12:26:02.812Z,9
2022-09-10T12:27:02.761Z,8.8
2022-09-10T12:28:02.759Z,9.1
2022-09-10T12:29:02.763Z,8.8
2022-09-10T12:30:02.900Z,8.9
2022-09-10T12:31:03.029Z,8.9
2022-09-10T12:32:02.786Z,9
2022-09-10T12:33:02.768Z,8.7
2022-09-10T12:34:02.769Z,8.6
2022-09-10T12:35:02.783Z,8.3
2022-09-10T12:36:02.773Z,8.8
2022-09-10T12:37:02.770Z,8.7
2022-09-10T12:38:02.790Z,9
2022-09-10T12:39:02.818Z,8.7
2022-09-10T12:40:02.885Z,8.9
2022-09-10T12:41:02.772Z,8.7
2022-09-10T12:42:02.761Z,8.6
2022-09-10T12:43:02.783Z,9.1
2022-09-10T12:44:02.763Z,8.8
2022-09-10T12:45:02.763Z,9.1
2022-09-10T12:46:02.832Z,8.7
2022-09-10T12:47:02.781Z,8.5
2022-09-10T12:48:02.794Z,9.1
2022-09-10T12:49:02.772Z,8.8
2022-09-10T12:50:02.846Z,8.7
2022-09-10T12:51:02.778Z,8.7
2022-09-10T12:52:02.772Z,8.7
2022-09-10T12:53:02.809Z,8.8
2022-09-10T12:54:02.778Z,8.9
2022-09-10T12:55:02.785Z,8.8
2022-09-10T12:56:02.766Z,8.6
2022-09-10T12:57:02.773Z,9
2022-09-10T12:58:02.770Z,8.7
2022-09-10T12:59:02.775Z,8.5
2022-09-10T13:00:02.780Z,8.8
2022-09-10T13:01:02.770Z,9
2022-09-10T13:02:02.885Z,9.3
2022-09-10T13:03:02.772Z,9.4
2022-09-10T13:04:02.768Z,9.5
2022-09-10T13:05:02.788Z,9.6
2022-09-10T13:06:02.777Z,9.6
2022-09-10T13:07:02.767Z,9.7
2022-09-10T13:08:02.773Z,9.5
2022-09-10T13:09:02.788Z,9.8
2022-09-10T13:10:02.834Z,9.7
2022-09-10T13:11:02.769Z,9.5
2022-09-10T13:12:02.773Z,9.7
2022-09-10T13:13:02.801Z,9.6
2022-09-10T13:14:02.792Z,9.3
2022-09-10T13:15:02.771Z,9.5
2022-09-10T13:16:02.816Z,9.4
2022-09-10T13:17:02.772Z,9.5
2022-09-10T13:18:02.776Z,9.1
2022-09-10T13:19:02.785Z,9.2
2022-09-10T13:20:02.789Z,9.3
2022-09-10T13:21:02.785Z,8.5
2022-09-10T13:22:02.810Z,8.1
2022-09-10T13:23:02.790Z,7.7
2022-09-10T13:24:02.798Z,7.3
2022-09-10T13:25:02.774Z,7
2022-09-10T13:26:02.776Z,7.1
2022-09-10T13:27:02.799Z,7.1
2022-09-10T13:28:02.795Z,6.9
2022-09-10T13:29:02.781Z,7
2022-09-10T13:30:02.764Z,6.9
2022-09-10T13:31:02.831Z,7.2
2022-09-10T13:32:02.801Z,6.9
2022-09-10T13:33:02.794Z,6.8
2022-09-10T13:34:02.876Z,7.7
2022-09-10T13:35:02.771Z,6.9
2022-09-10T13:36:02.795Z,7.4
2022-09-10T13:37:02.783Z,7.1
2022-09-10T13:38:02.791Z,6.9
2022-09-10T13:39:03.283Z,6.8
2022-09-10T13:40:03.024Z,7
2022-09-10T13:41:02.768Z,7.1
2022-09-10T13:42:02.793Z,7.3
2022-09-10T13:43:02.777Z,7.5
2022-09-10T13:44:02.837Z,7.4
2022-09-10T13:45:02.794Z,7
2022-09-10T13:46:02.869Z,6.8
2022-09-10T13:47:02.773Z,7.3
2022-09-10T13:48:02.794Z,7.1
2022-09-10T13:49:02.795Z,7.2
2022-09-10T13:50:02.812Z,6.8
2022-09-10T13:51:02.840Z,6.8
2022-09-10T13:52:02.785Z,6.9
2022-09-10T13:53:02.787Z,7.3
2022-09-10T13:54:02.781Z,7.4
2022-09-10T13:55:02.789Z,7.7
2022-09-10T13:56:02.776Z,7.8
2022-09-10T13:57:02.777Z,7.4
2022-09-10T13:58:02.875Z,7.7
2022-09-10T13:59:02.788Z,7.8
2022-09-10T14:00:02.801Z,7.3
2022-09-10T14:01:02.782Z,7.5
2022-09-10T14:02:02.789Z,7.6
2022-09-10T14:03:02.793Z,7.8
2022-09-10T14:04:02.820Z,7.5